sensor_id;sensor_type;location;lat;lon;timestamp;P1;durP1;ratioP1;P2;durP2;ratioP2
39654;SDS011;25336;59.944;11.010;2023-09-19T00:01:05;7.07;;;4.65;;
39654;SDS011;25336;59.944;11.010;2023-09-19T00:03:34;5.68;;;4.10;;
39654;SDS011;25336;59.944;11.010;2023-09-19T00:06:04;9.35;;;5.22;;
39654;SDS011;25336;59.944;11.010;2023-09-19T00:08:32;13.40;;;5.43;;
39654;SDS011;25336;59.944;11.010;2023-09-19T00:10:58;9.30;;;4.90;;
39654;SDS011;25336;59.944;11.010;2023-09-19T00:13:30;11.40;;;5.05;;
39654;SDS011;25336;59.944;11.010;2023-09-19T00:16:01;9.68;;;5.22;;
39654;SDS011;25336;59.944;11.010;2023-09-19T00:18:32;13.73;;;4.03;;
39654;SDS011;25336;59.944;11.010;2023-09-19T00:20:59;13.25;;;5.13;;
39654;SDS011;25336;59.944;11.010;2023-09-19T00:23:26;9.02;;;4.75;;
39654;SDS011;25336;59.944;11.010;2023-09-19T00:25:53;9.85;;;4.55;;
39654;SDS011;25336;59.944;11.010;2023-09-19T00:28:22;9.43;;;4.75;;
39654;SDS011;25336;59.944;11.010;2023-09-19T00:30:48;7.32;;;4.65;;
39654;SDS011;25336;59.944;11.010;2023-09-19T00:33:16;9.50;;;4.55;;
39654;SDS011;25336;59.944;11.010;2023-09-19T00:35:47;9.27;;;4.72;;
39654;SDS011;25336;59.944;11.010;2023-09-19T00:38:13;9.48;;;4.82;;
39654;SDS011;25336;59.944;11.010;2023-09-19T00:40:45;8.80;;;4.95;;
39654;SDS011;25336;59.944;11.010;2023-09-19T00:43:11;7.28;;;4.20;;
39654;SDS011;25336;59.944;11.010;2023-09-19T00:45:37;8.00;;;4.65;;
39654;SDS011;25336;59.944;11.010;2023-09-19T00:48:04;8.88;;;4.85;;
39654;SDS011;25336;59.944;11.010;2023-09-19T00:50:33;9.32;;;5.05;;
39654;SDS011;25336;59.944;11.010;2023-09-19T00:53:00;9.32;;;4.75;;
39654;SDS011;25336;59.944;11.010;2023-09-19T00:55:26;7.30;;;4.55;;
39654;SDS011;25336;59.944;11.010;2023-09-19T00:57:55;4.97;;;4.25;;
39654;SDS011;25336;59.944;11.010;2023-09-19T01:00:21;9.32;;;4.57;;
39654;SDS011;25336;59.944;11.010;2023-09-19T01:02:48;7.50;;;4.55;;
39654;SDS011;25336;59.944;11.010;2023-09-19T01:05:14;11.85;;;4.63;;
39654;SDS011;25336;59.944;11.010;2023-09-19T01:07:41;10.63;;;4.30;;
39654;SDS011;25336;59.944;11.010;2023-09-19T01:10:14;10.13;;;4.47;;
39654;SDS011;25336;59.944;11.010;2023-09-19T01:20:44;10.32;;;4.35;;
39654;SDS011;25336;59.944;11.010;2023-09-19T01:23:20;8.07;;;4.28;;
39654;SDS011;25336;59.944;11.010;2023-09-19T01:31:12;13.35;;;4.40;;
39654;SDS011;25336;59.944;11.010;2023-09-19T01:33:54;8.07;;;3.95;;
39654;SDS011;25336;59.944;11.010;2023-09-19T01:36:30;7.63;;;3.83;;
39654;SDS011;25336;59.944;11.010;2023-09-19T01:39:01;8.30;;;4.38;;
39654;SDS011;25336;59.944;11.010;2023-09-19T01:42:09;8.77;;;3.70;;
39654;SDS011;25336;59.944;11.010;2023-09-19T01:47:26;9.38;;;4.13;;
39654;SDS011;25336;59.944;11.010;2023-09-19T01:50:13;9.60;;;3.30;;
39654;SDS011;25336;59.944;11.010;2023-09-19T01:52:57;8.55;;;3.75;;
39654;SDS011;25336;59.944;11.010;2023-09-19T01:55:30;6.28;;;4.20;;
39654;SDS011;25336;59.944;11.010;2023-09-19T01:58:06;8.20;;;3.45;;
39654;SDS011;25336;59.944;11.010;2023-09-19T02:00:46;7.57;;;3.72;;
39654;SDS011;25336;59.944;11.010;2023-09-19T02:03:17;7.55;;;3.75;;
39654;SDS011;25336;59.944;11.010;2023-09-19T02:05:48;9.38;;;4.03;;
39654;SDS011;25336;59.944;11.010;2023-09-19T02:08:19;10.65;;;4.40;;
39654;SDS011;25336;59.944;11.010;2023-09-19T02:10:46;11.10;;;4.85;;
39654;SDS011;25336;59.944;11.010;2023-09-19T02:13:17;9.45;;;4.32;;
39654;SDS011;25336;59.944;11.010;2023-09-19T02:15:44;9.63;;;4.07;;
39654;SDS011;25336;59.944;11.010;2023-09-19T02:18:11;10.73;;;4.65;;
39654;SDS011;25336;59.944;11.010;2023-09-19T02:20:39;6.75;;;4.07;;
39654;SDS011;25336;59.944;11.010;2023-09-19T02:23:06;12.77;;;4.20;;
39654;SDS011;25336;59.944;11.010;2023-09-19T02:25:33;10.98;;;4.68;;
39654;SDS011;25336;59.944;11.010;2023-09-19T02:27:58;8.85;;;4.78;;
39654;SDS011;25336;59.944;11.010;2023-09-19T02:30:26;10.45;;;4.55;;
39654;SDS011;25336;59.944;11.010;2023-09-19T02:32:51;5.10;;;4.03;;
39654;SDS011;25336;59.944;11.010;2023-09-19T02:35:17;9.07;;;4.97;;
39654;SDS011;25336;59.944;11.010;2023-09-19T02:37:44;6.93;;;4.18;;
39654;SDS011;25336;59.944;11.010;2023-09-19T02:40:11;9.88;;;5.00;;
39654;SDS011;25336;59.944;11.010;2023-09-19T02:42:52;6.90;;;3.72;;
39654;SDS011;25336;59.944;11.010;2023-09-19T02:45:19;7.97;;;4.00;;
39654;SDS011;25336;59.944;11.010;2023-09-19T02:47:45;10.48;;;4.45;;
39654;SDS011;25336;59.944;11.010;2023-09-19T02:50:12;10.15;;;4.70;;
39654;SDS011;25336;59.944;11.010;2023-09-19T02:52:41;8.38;;;4.70;;
39654;SDS011;25336;59.944;11.010;2023-09-19T02:55:11;6.05;;;4.10;;
39654;SDS011;25336;59.944;11.010;2023-09-19T02:57:39;7.25;;;4.70;;
39654;SDS011;25336;59.944;11.010;2023-09-19T03:00:08;8.38;;;4.78;;
39654;SDS011;25336;59.944;11.010;2023-09-19T03:02:35;7.00;;;4.45;;
39654;SDS011;25336;59.944;11.010;2023-09-19T03:05:02;7.15;;;5.20;;
39654;SDS011;25336;59.944;11.010;2023-09-19T03:07:28;10.00;;;5.22;;
39654;SDS011;25336;59.944;11.010;2023-09-19T03:09:54;13.38;;;5.55;;
39654;SDS011;25336;59.944;11.010;2023-09-19T03:12:20;4.93;;;3.88;;
39654;SDS011;25336;59.944;11.010;2023-09-19T03:14:46;3.72;;;3.42;;
39654;SDS011;25336;59.944;11.010;2023-09-19T03:17:11;5.65;;;3.90;;
39654;SDS011;25336;59.944;11.010;2023-09-19T03:19:39;4.10;;;3.55;;
39654;SDS011;25336;59.944;11.010;2023-09-19T03:22:04;5.13;;;3.50;;
39654;SDS011;25336;59.944;11.010;2023-09-19T03:24:30;4.30;;;3.53;;
39654;SDS011;25336;59.944;11.010;2023-09-19T03:26:56;4.85;;;3.83;;
39654;SDS011;25336;59.944;11.010;2023-09-19T03:29:22;4.45;;;3.28;;
39654;SDS011;25336;59.944;11.010;2023-09-19T03:31:48;4.22;;;3.80;;
39654;SDS011;25336;59.944;11.010;2023-09-19T03:34:13;4.45;;;4.00;;
39654;SDS011;25336;59.944;11.010;2023-09-19T03:36:39;7.10;;;5.03;;
39654;SDS011;25336;59.944;11.010;2023-09-19T03:39:06;6.30;;;5.07;;
39654;SDS011;25336;59.944;11.010;2023-09-19T03:41:31;5.15;;;4.65;;
39654;SDS011;25336;59.944;11.010;2023-09-19T03:43:58;12.43;;;5.10;;
39654;SDS011;25336;59.944;11.010;2023-09-19T03:46:23;5.53;;;4.35;;
39654;SDS011;25336;59.944;11.010;2023-09-19T03:48:49;6.05;;;5.45;;
39654;SDS011;25336;59.944;11.010;2023-09-19T03:51:15;5.93;;;5.15;;
39654;SDS011;25336;59.944;11.010;2023-09-19T03:53:41;5.70;;;4.57;;
39654;SDS011;25336;59.944;11.010;2023-09-19T03:56:06;7.15;;;5.53;;
39654;SDS011;25336;59.944;11.010;2023-09-19T03:58:33;6.15;;;4.50;;
39654;SDS011;25336;59.944;11.010;2023-09-19T04:01:03;6.05;;;5.50;;
39654;SDS011;25336;59.944;11.010;2023-09-19T04:03:28;6.28;;;5.13;;
39654;SDS011;25336;59.944;11.010;2023-09-19T04:08:26;5.63;;;5.10;;
39654;SDS011;25336;59.944;11.010;2023-09-19T04:10:52;7.25;;;5.53;;
39654;SDS011;25336;59.944;11.010;2023-09-19T04:13:18;8.07;;;4.93;;
39654;SDS011;25336;59.944;11.010;2023-09-19T04:15:43;6.78;;;4.82;;
39654;SDS011;25336;59.944;11.010;2023-09-19T04:18:11;5.25;;;4.68;;
39654;SDS011;25336;59.944;11.010;2023-09-19T04:20:37;4.40;;;3.97;;
39654;SDS011;25336;59.944;11.010;2023-09-19T04:23:02;4.45;;;4.05;;
39654;SDS011;25336;59.944;11.010;2023-09-19T04:25:30;4.20;;;3.70;;
39654;SDS011;25336;59.944;11.010;2023-09-19T04:27:55;4.13;;;3.80;;
39654;SDS011;25336;59.944;11.010;2023-09-19T04:30:21;4.57;;;3.90;;
39654;SDS011;25336;59.944;11.010;2023-09-19T04:32:46;5.80;;;4.20;;
39654;SDS011;25336;59.944;11.010;2023-09-19T04:35:15;4.70;;;4.30;;
39654;SDS011;25336;59.944;11.010;2023-09-19T04:37:41;4.88;;;4.38;;
39654;SDS011;25336;59.944;11.010;2023-09-19T04:40:07;4.78;;;4.30;;
39654;SDS011;25336;59.944;11.010;2023-09-19T04:42:42;4.40;;;4.00;;
39654;SDS011;25336;59.944;11.010;2023-09-19T04:45:08;3.88;;;3.55;;
39654;SDS011;25336;59.944;11.010;2023-09-19T04:47:35;4.32;;;3.78;;
39654;SDS011;25336;59.944;11.010;2023-09-19T04:50:04;4.13;;;3.50;;
39654;SDS011;25336;59.944;11.010;2023-09-19T04:52:31;3.80;;;3.40;;
39654;SDS011;25336;59.944;11.010;2023-09-19T04:54:57;3.72;;;3.45;;
39654;SDS011;25336;59.944;11.010;2023-09-19T04:57:22;4.88;;;3.83;;
39654;SDS011;25336;59.944;11.010;2023-09-19T04:59:49;4.15;;;3.80;;
39654;SDS011;25336;59.944;11.010;2023-09-19T05:02:15;3.53;;;3.22;;
39654;SDS011;25336;59.944;11.010;2023-09-19T05:04:40;4.35;;;3.95;;
39654;SDS011;25336;59.944;11.010;2023-09-19T05:07:06;7.03;;;3.85;;
39654;SDS011;25336;59.944;11.010;2023-09-19T05:09:31;4.22;;;2.90;;
39654;SDS011;25336;59.944;11.010;2023-09-19T05:11:59;3.00;;;2.80;;
39654;SDS011;25336;59.944;11.010;2023-09-19T05:14:25;3.15;;;2.88;;
39654;SDS011;25336;59.944;11.010;2023-09-19T05:16:50;2.60;;;2.40;;
39654;SDS011;25336;59.944;11.010;2023-09-19T05:19:16;3.08;;;1.95;;
39654;SDS011;25336;59.944;11.010;2023-09-19T05:21:42;3.72;;;2.15;;
39654;SDS011;25336;59.944;11.010;2023-09-19T05:24:07;4.32;;;2.40;;
39654;SDS011;25336;59.944;11.010;2023-09-19T05:26:33;2.20;;;2.10;;
39654;SDS011;25336;59.944;11.010;2023-09-19T05:28:59;3.00;;;2.70;;
39654;SDS011;25336;59.944;11.010;2023-09-19T05:31:26;3.20;;;2.50;;
39654;SDS011;25336;59.944;11.010;2023-09-19T05:33:52;2.42;;;1.85;;
39654;SDS011;25336;59.944;11.010;2023-09-19T05:36:20;2.60;;;2.35;;
39654;SDS011;25336;59.944;11.010;2023-09-19T05:38:49;2.28;;;1.88;;
39654;SDS011;25336;59.944;11.010;2023-09-19T05:41:16;1.88;;;1.77;;
39654;SDS011;25336;59.944;11.010;2023-09-19T05:43:42;1.75;;;1.48;;
39654;SDS011;25336;59.944;11.010;2023-09-19T05:46:08;2.05;;;1.88;;
39654;SDS011;25336;59.944;11.010;2023-09-19T05:48:34;1.75;;;1.65;;
39654;SDS011;25336;59.944;11.010;2023-09-19T05:51:00;5.47;;;1.38;;
39654;SDS011;25336;59.944;11.010;2023-09-19T05:53:26;2.00;;;1.70;;
39654;SDS011;25336;59.944;11.010;2023-09-19T05:55:51;2.17;;;1.60;;
39654;SDS011;25336;59.944;11.010;2023-09-19T05:58:18;2.45;;;1.77;;
39654;SDS011;25336;59.944;11.010;2023-09-19T06:00:44;1.65;;;1.55;;
39654;SDS011;25336;59.944;11.010;2023-09-19T06:03:12;3.67;;;2.28;;
39654;SDS011;25336;59.944;11.010;2023-09-19T06:05:39;2.40;;;1.60;;
39654;SDS011;25336;59.944;11.010;2023-09-19T06:08:06;4.60;;;2.25;;
39654;SDS011;25336;59.944;11.010;2023-09-19T06:10:33;6.15;;;1.98;;
39654;SDS011;25336;59.944;11.010;2023-09-19T06:13:00;2.60;;;1.98;;
39654;SDS011;25336;59.944;11.010;2023-09-19T06:15:29;2.35;;;1.60;;
39654;SDS011;25336;59.944;11.010;2023-09-19T06:17:57;3.60;;;1.50;;
39654;SDS011;25336;59.944;11.010;2023-09-19T06:20:24;3.40;;;1.92;;
39654;SDS011;25336;59.944;11.010;2023-09-19T06:22:52;5.68;;;1.50;;
39654;SDS011;25336;59.944;11.010;2023-09-19T06:25:18;2.28;;;1.60;;
39654;SDS011;25336;59.944;11.010;2023-09-19T06:27:45;4.20;;;2.00;;
39654;SDS011;25336;59.944;11.010;2023-09-19T06:30:11;2.88;;;1.30;;
39654;SDS011;25336;59.944;11.010;2023-09-19T06:32:38;2.45;;;1.35;;
39654;SDS011;25336;59.944;11.010;2023-09-19T06:35:04;4.90;;;1.30;;
39654;SDS011;25336;59.944;11.010;2023-09-19T06:37:33;2.80;;;1.70;;
39654;SDS011;25336;59.944;11.010;2023-09-19T06:40:03;6.57;;;1.98;;
39654;SDS011;25336;59.944;11.010;2023-09-19T06:42:33;5.43;;;1.50;;
39654;SDS011;25336;59.944;11.010;2023-09-19T06:45:00;3.63;;;1.30;;
39654;SDS011;25336;59.944;11.010;2023-09-19T06:47:25;3.28;;;1.58;;
39654;SDS011;25336;59.944;11.010;2023-09-19T06:49:51;3.08;;;1.58;;
39654;SDS011;25336;59.944;11.010;2023-09-19T06:52:17;5.20;;;1.52;;
39654;SDS011;25336;59.944;11.010;2023-09-19T06:54:46;3.38;;;1.50;;
39654;SDS011;25336;59.944;11.010;2023-09-19T06:57:18;5.03;;;1.95;;
39654;SDS011;25336;59.944;11.010;2023-09-19T06:59:44;5.13;;;1.60;;
39654;SDS011;25336;59.944;11.010;2023-09-19T07:02:11;4.22;;;1.40;;
39654;SDS011;25336;59.944;11.010;2023-09-19T07:04:36;4.20;;;1.30;;
39654;SDS011;25336;59.944;11.010;2023-09-19T07:07:02;4.40;;;1.40;;
39654;SDS011;25336;59.944;11.010;2023-09-19T07:09:28;2.55;;;1.55;;
39654;SDS011;25336;59.944;11.010;2023-09-19T07:11:54;3.35;;;1.05;;
39654;SDS011;25336;59.944;11.010;2023-09-19T07:14:20;4.07;;;1.70;;
39654;SDS011;25336;59.944;11.010;2023-09-19T07:16:45;3.92;;;1.17;;
39654;SDS011;25336;59.944;11.010;2023-09-19T07:19:12;5.50;;;1.50;;
39654;SDS011;25336;59.944;11.010;2023-09-19T07:21:40;1.60;;;1.00;;
39654;SDS011;25336;59.944;11.010;2023-09-19T07:24:05;3.03;;;1.33;;
39654;SDS011;25336;59.944;11.010;2023-09-19T07:26:33;6.20;;;1.48;;
39654;SDS011;25336;59.944;11.010;2023-09-19T07:28:59;3.58;;;1.42;;
39654;SDS011;25336;59.944;11.010;2023-09-19T07:31:27;2.47;;;1.10;;
39654;SDS011;25336;59.944;11.010;2023-09-19T07:33:53;4.30;;;1.50;;
39654;SDS011;25336;59.944;11.010;2023-09-19T07:36:19;3.38;;;1.00;;
39654;SDS011;25336;59.944;11.010;2023-09-19T07:38:45;6.85;;;1.70;;
39654;SDS011;25336;59.944;11.010;2023-09-19T07:41:10;3.00;;;1.48;;
39654;SDS011;25336;59.944;11.010;2023-09-19T07:43:36;5.00;;;1.10;;
39654;SDS011;25336;59.944;11.010;2023-09-19T07:46:07;5.72;;;1.10;;
39654;SDS011;25336;59.944;11.010;2023-09-19T07:48:34;4.70;;;1.55;;
39654;SDS011;25336;59.944;11.010;2023-09-19T07:51:06;3.05;;;1.30;;
39654;SDS011;25336;59.944;11.010;2023-09-19T07:53:33;2.97;;;1.08;;
39654;SDS011;25336;59.944;11.010;2023-09-19T07:56:03;2.05;;;0.98;;
39654;SDS011;25336;59.944;11.010;2023-09-19T07:58:32;6.72;;;1.27;;
39654;SDS011;25336;59.944;11.010;2023-09-19T08:01:09;5.53;;;1.00;;
39654;SDS011;25336;59.944;11.010;2023-09-19T08:03:38;4.03;;;1.60;;
39654;SDS011;25336;59.944;11.010;2023-09-19T08:06:08;5.32;;;1.73;;
39654;SDS011;25336;59.944;11.010;2023-09-19T08:08:34;4.65;;;1.50;;
39654;SDS011;25336;59.944;11.010;2023-09-19T08:11:04;3.50;;;1.42;;
39654;SDS011;25336;59.944;11.010;2023-09-19T08:13:37;13.75;;;1.90;;
39654;SDS011;25336;59.944;11.010;2023-09-19T08:16:08;4.15;;;1.10;;
39654;SDS011;25336;59.944;11.010;2023-09-19T08:18:37;7.20;;;2.35;;
39654;SDS011;25336;59.944;11.010;2023-09-19T08:21:06;4.55;;;1.38;;
39654;SDS011;25336;59.944;11.010;2023-09-19T08:23:39;3.63;;;2.10;;
39654;SDS011;25336;59.944;11.010;2023-09-19T08:26:04;6.30;;;2.00;;
39654;SDS011;25336;59.944;11.010;2023-09-19T08:28:36;4.75;;;1.23;;
39654;SDS011;25336;59.944;11.010;2023-09-19T08:31:06;4.25;;;1.55;;
39654;SDS011;25336;59.944;11.010;2023-09-19T08:33:35;7.80;;;1.95;;
39654;SDS011;25336;59.944;11.010;2023-09-19T08:36:02;10.05;;;1.40;;
39654;SDS011;25336;59.944;11.010;2023-09-19T08:38:30;3.55;;;1.38;;
39654;SDS011;25336;59.944;11.010;2023-09-19T08:40:58;5.80;;;1.40;;
39654;SDS011;25336;59.944;11.010;2023-09-19T08:43:24;6.22;;;1.38;;
39654;SDS011;25336;59.944;11.010;2023-09-19T08:45:53;6.68;;;1.73;;
39654;SDS011;25336;59.944;11.010;2023-09-19T08:48:54;5.80;;;1.23;;
39654;SDS011;25336;59.944;11.010;2023-09-19T08:54:09;3.67;;;1.10;;
39654;SDS011;25336;59.944;11.010;2023-09-19T08:56:47;6.57;;;1.65;;
39654;SDS011;25336;59.944;11.010;2023-09-19T08:59:15;5.35;;;1.48;;
39654;SDS011;25336;59.944;11.010;2023-09-19T09:01:42;4.10;;;1.50;;
39654;SDS011;25336;59.944;11.010;2023-09-19T09:04:08;8.07;;;1.30;;
39654;SDS011;25336;59.944;11.010;2023-09-19T09:06:37;2.85;;;1.35;;
39654;SDS011;25336;59.944;11.010;2023-09-19T09:09:04;3.80;;;1.58;;
39654;SDS011;25336;59.944;11.010;2023-09-19T09:11:30;2.97;;;1.10;;
39654;SDS011;25336;59.944;11.010;2023-09-19T09:13:58;1.70;;;0.90;;
39654;SDS011;25336;59.944;11.010;2023-09-19T09:16:24;2.30;;;0.90;;
39654;SDS011;25336;59.944;11.010;2023-09-19T09:18:50;2.60;;;1.00;;
39654;SDS011;25336;59.944;11.010;2023-09-19T09:21:17;3.00;;;1.05;;
39654;SDS011;25336;59.944;11.010;2023-09-19T09:23:45;4.13;;;0.95;;
39654;SDS011;25336;59.944;11.010;2023-09-19T09:26:10;3.20;;;1.10;;
39654;SDS011;25336;59.944;11.010;2023-09-19T09:28:38;4.25;;;1.85;;
39654;SDS011;25336;59.944;11.010;2023-09-19T09:31:21;1.05;;;0.88;;
39654;SDS011;25336;59.944;11.010;2023-09-19T09:33:54;1.42;;;0.82;;
39654;SDS011;25336;59.944;11.010;2023-09-19T09:36:39;1.70;;;0.63;;
39654;SDS011;25336;59.944;11.010;2023-09-19T09:39:07;2.08;;;0.80;;
39654;SDS011;25336;59.944;11.010;2023-09-19T09:41:49;0.88;;;0.75;;
39654;SDS011;25336;59.944;11.010;2023-09-19T09:44:16;3.05;;;0.60;;
39654;SDS011;25336;59.944;11.010;2023-09-19T09:46:46;2.65;;;0.77;;
39654;SDS011;25336;59.944;11.010;2023-09-19T09:49:25;1.38;;;0.70;;
39654;SDS011;25336;59.944;11.010;2023-09-19T09:54:57;1.25;;;0.52;;
39654;SDS011;25336;59.944;11.010;2023-09-19T09:57:32;1.08;;;0.70;;
39654;SDS011;25336;59.944;11.010;2023-09-19T09:59:58;4.22;;;0.65;;
39654;SDS011;25336;59.944;11.010;2023-09-19T10:02:45;1.48;;;0.65;;
39654;SDS011;25336;59.944;11.010;2023-09-19T10:05:20;1.08;;;0.60;;
39654;SDS011;25336;59.944;11.010;2023-09-19T10:07:52;3.58;;;0.60;;
39654;SDS011;25336;59.944;11.010;2023-09-19T10:13:18;2.72;;;0.68;;
39654;SDS011;25336;59.944;11.010;2023-09-19T10:15:48;0.47;;;0.40;;
39654;SDS011;25336;59.944;11.010;2023-09-19T10:18:20;1.25;;;0.70;;
39654;SDS011;25336;59.944;11.010;2023-09-19T10:20:47;1.35;;;0.50;;
39654;SDS011;25336;59.944;11.010;2023-09-19T10:23:14;4.07;;;0.60;;
39654;SDS011;25336;59.944;11.010;2023-09-19T10:25:47;3.47;;;0.52;;
39654;SDS011;25336;59.944;11.010;2023-09-19T10:28:14;1.15;;;0.40;;
39654;SDS011;25336;59.944;11.010;2023-09-19T10:30:41;0.65;;;0.40;;
39654;SDS011;25336;59.944;11.010;2023-09-19T10:33:10;7.30;;;0.88;;
39654;SDS011;25336;59.944;11.010;2023-09-19T10:35:44;2.92;;;0.73;;
39654;SDS011;25336;59.944;11.010;2023-09-19T10:38:10;0.95;;;0.50;;
39654;SDS011;25336;59.944;11.010;2023-09-19T10:40:38;0.57;;;0.40;;
39654;SDS011;25336;59.944;11.010;2023-09-19T10:43:17;0.98;;;0.40;;
39654;SDS011;25336;59.944;11.010;2023-09-19T10:45:48;3.08;;;0.57;;
39654;SDS011;25336;59.944;11.010;2023-09-19T10:48:17;0.85;;;0.68;;
39654;SDS011;25336;59.944;11.010;2023-09-19T10:51:04;0.95;;;0.40;;
39654;SDS011;25336;59.944;11.010;2023-09-19T10:56:27;3.25;;;0.60;;
39654;SDS011;25336;59.944;11.010;2023-09-19T10:59:09;3.33;;;0.50;;
39654;SDS011;25336;59.944;11.010;2023-09-19T11:04:28;0.65;;;0.50;;
39654;SDS011;25336;59.944;11.010;2023-09-19T11:07:11;1.85;;;0.65;;
39654;SDS011;25336;59.944;11.010;2023-09-19T11:09:45;0.75;;;0.60;;
39654;SDS011;25336;59.944;11.010;2023-09-19T11:14:56;1.65;;;0.88;;
39654;SDS011;25336;59.944;11.010;2023-09-19T11:30:30;0.95;;;0.52;;
39654;SDS011;25336;59.944;11.010;2023-09-19T11:33:16;0.47;;;0.45;;
39654;SDS011;25336;59.944;11.010;2023-09-19T11:47:02;0.70;;;0.50;;
39654;SDS011;25336;59.944;11.010;2023-09-19T11:49:30;2.03;;;0.63;;
39654;SDS011;25336;59.944;11.010;2023-09-19T11:51:58;2.00;;;0.70;;
39654;SDS011;25336;59.944;11.010;2023-09-19T11:54:25;0.63;;;0.50;;
39654;SDS011;25336;59.944;11.010;2023-09-19T11:56:56;1.45;;;0.63;;
39654;SDS011;25336;59.944;11.010;2023-09-19T11:59:23;1.35;;;0.65;;
39654;SDS011;25336;59.944;11.010;2023-09-19T12:01:57;1.15;;;0.50;;
39654;SDS011;25336;59.944;11.010;2023-09-19T12:04:41;1.02;;;0.70;;
39654;SDS011;25336;59.944;11.010;2023-09-19T12:07:11;1.25;;;0.55;;
39654;SDS011;25336;59.944;11.010;2023-09-19T12:09:45;3.10;;;0.90;;
39654;SDS011;25336;59.944;11.010;2023-09-19T12:12:22;5.55;;;1.05;;
39654;SDS011;25336;59.944;11.010;2023-09-19T12:14:52;1.15;;;0.70;;
39654;SDS011;25336;59.944;11.010;2023-09-19T12:17:19;1.50;;;0.80;;
39654;SDS011;25336;59.944;11.010;2023-09-19T12:19:52;1.30;;;0.65;;
39654;SDS011;25336;59.944;11.010;2023-09-19T12:22:18;2.10;;;1.10;;
39654;SDS011;25336;59.944;11.010;2023-09-19T12:24:45;1.55;;;0.70;;
39654;SDS011;25336;59.944;11.010;2023-09-19T12:27:12;1.17;;;0.52;;
39654;SDS011;25336;59.944;11.010;2023-09-19T12:29:42;1.98;;;0.80;;
39654;SDS011;25336;59.944;11.010;2023-09-19T12:32:09;4.72;;;0.80;;
39654;SDS011;25336;59.944;11.010;2023-09-19T12:34:34;2.65;;;0.70;;
39654;SDS011;25336;59.944;11.010;2023-09-19T12:37:10;2.70;;;0.93;;
39654;SDS011;25336;59.944;11.010;2023-09-19T12:39:45;1.23;;;0.70;;
39654;SDS011;25336;59.944;11.010;2023-09-19T12:42:14;1.00;;;0.73;;
39654;SDS011;25336;59.944;11.010;2023-09-19T12:44:43;1.35;;;0.57;;
39654;SDS011;25336;59.944;11.010;2023-09-19T12:47:14;2.15;;;0.63;;
39654;SDS011;25336;59.944;11.010;2023-09-19T12:52:46;1.40;;;0.95;;
39654;SDS011;25336;59.944;11.010;2023-09-19T12:55:24;2.70;;;0.83;;
39654;SDS011;25336;59.944;11.010;2023-09-19T12:58:14;5.05;;;0.85;;
39654;SDS011;25336;59.944;11.010;2023-09-19T13:00:44;2.42;;;0.77;;
39654;SDS011;25336;59.944;11.010;2023-09-19T13:08:28;1.38;;;0.85;;
39654;SDS011;25336;59.944;11.010;2023-09-19T13:11:04;1.90;;;0.70;;
39654;SDS011;25336;59.944;11.010;2023-09-19T13:13:37;1.40;;;1.00;;
39654;SDS011;25336;59.944;11.010;2023-09-19T13:16:04;5.22;;;1.15;;
39654;SDS011;25336;59.944;11.010;2023-09-19T13:18:42;3.17;;;0.88;;
39654;SDS011;25336;59.944;11.010;2023-09-19T13:21:10;2.25;;;0.90;;
39654;SDS011;25336;59.944;11.010;2023-09-19T13:23:41;3.42;;;1.10;;
39654;SDS011;25336;59.944;11.010;2023-09-19T13:26:08;3.28;;;1.13;;
39654;SDS011;25336;59.944;11.010;2023-09-19T13:28:35;4.60;;;1.30;;
39654;SDS011;25336;59.944;11.010;2023-09-19T13:31:02;6.88;;;1.20;;
39654;SDS011;25336;59.944;11.010;2023-09-19T13:33:28;5.60;;;2.15;;
39654;SDS011;25336;59.944;11.010;2023-09-19T13:35:53;7.40;;;1.92;;
39654;SDS011;25336;59.944;11.010;2023-09-19T13:38:20;2.47;;;1.10;;
39654;SDS011;25336;59.944;11.010;2023-09-19T13:40:47;3.42;;;1.48;;
39654;SDS011;25336;59.944;11.010;2023-09-19T13:43:13;4.25;;;1.40;;
39654;SDS011;25336;59.944;11.010;2023-09-19T13:45:38;3.00;;;1.17;;
39654;SDS011;25336;59.944;11.010;2023-09-19T13:48:07;3.97;;;1.42;;
39654;SDS011;25336;59.944;11.010;2023-09-19T13:50:34;5.57;;;1.45;;
39654;SDS011;25336;59.944;11.010;2023-09-19T13:53:01;3.25;;;1.58;;
39654;SDS011;25336;59.944;11.010;2023-09-19T13:55:28;2.55;;;1.10;;
39654;SDS011;25336;59.944;11.010;2023-09-19T13:57:54;3.88;;;0.95;;
39654;SDS011;25336;59.944;11.010;2023-09-19T14:00:21;2.38;;;1.50;;
39654;SDS011;25336;59.944;11.010;2023-09-19T14:02:47;3.25;;;1.30;;
39654;SDS011;25336;59.944;11.010;2023-09-19T14:05:14;2.17;;;1.15;;
39654;SDS011;25336;59.944;11.010;2023-09-19T14:07:41;2.90;;;1.10;;
39654;SDS011;25336;59.944;11.010;2023-09-19T14:10:13;4.55;;;1.70;;
39654;SDS011;25336;59.944;11.010;2023-09-19T14:12:39;3.65;;;0.90;;
39654;SDS011;25336;59.944;11.010;2023-09-19T14:15:06;3.80;;;1.48;;
39654;SDS011;25336;59.944;11.010;2023-09-19T14:17:33;2.72;;;1.42;;
39654;SDS011;25336;59.944;11.010;2023-09-19T14:19:59;2.55;;;0.98;;
39654;SDS011;25336;59.944;11.010;2023-09-19T14:22:24;5.07;;;1.20;;
39654;SDS011;25336;59.944;11.010;2023-09-19T14:24:50;3.55;;;1.25;;
39654;SDS011;25336;59.944;11.010;2023-09-19T14:27:15;3.67;;;1.40;;
39654;SDS011;25336;59.944;11.010;2023-09-19T14:29:41;3.25;;;1.38;;
39654;SDS011;25336;59.944;11.010;2023-09-19T14:32:07;6.38;;;1.27;;
39654;SDS011;25336;59.944;11.010;2023-09-19T14:34:32;2.83;;;1.02;;
39654;SDS011;25336;59.944;11.010;2023-09-19T14:36:58;3.63;;;1.00;;
39654;SDS011;25336;59.944;11.010;2023-09-19T14:39:24;4.60;;;1.23;;
39654;SDS011;25336;59.944;11.010;2023-09-19T14:41:50;2.08;;;0.80;;
39654;SDS011;25336;59.944;11.010;2023-09-19T14:44:15;2.30;;;0.98;;
39654;SDS011;25336;59.944;11.010;2023-09-19T14:46:41;1.95;;;0.95;;
39654;SDS011;25336;59.944;11.010;2023-09-19T14:49:09;0.98;;;0.70;;
39654;SDS011;25336;59.944;11.010;2023-09-19T14:51:35;2.85;;;1.15;;
39654;SDS011;25336;59.944;11.010;2023-09-19T14:54:02;4.57;;;0.80;;
39654;SDS011;25336;59.944;11.010;2023-09-19T14:56:28;1.52;;;1.08;;
39654;SDS011;25336;59.944;11.010;2023-09-19T14:58:56;1.55;;;1.23;;
39654;SDS011;25336;59.944;11.010;2023-09-19T15:01:21;2.35;;;1.45;;
39654;SDS011;25336;59.944;11.010;2023-09-19T15:03:47;3.58;;;0.90;;
39654;SDS011;25336;59.944;11.010;2023-09-19T15:06:15;1.45;;;0.75;;
39654;SDS011;25336;59.944;11.010;2023-09-19T15:08:42;2.10;;;1.00;;
39654;SDS011;25336;59.944;11.010;2023-09-19T15:11:21;3.30;;;0.93;;
39654;SDS011;25336;59.944;11.010;2023-09-19T15:13:47;1.25;;;0.80;;
39654;SDS011;25336;59.944;11.010;2023-09-19T15:16:17;2.05;;;0.80;;
39654;SDS011;25336;59.944;11.010;2023-09-19T15:18:44;2.88;;;0.70;;
39654;SDS011;25336;59.944;11.010;2023-09-19T15:21:13;0.95;;;0.70;;
39654;SDS011;25336;59.944;11.010;2023-09-19T15:23:40;2.03;;;0.70;;
39654;SDS011;25336;59.944;11.010;2023-09-19T15:26:11;3.03;;;1.02;;
39654;SDS011;25336;59.944;11.010;2023-09-19T15:28:38;0.93;;;0.60;;
39654;SDS011;25336;59.944;11.010;2023-09-19T15:31:05;0.50;;;0.40;;
39654;SDS011;25336;59.944;11.010;2023-09-19T15:33:32;0.70;;;0.50;;
39654;SDS011;25336;59.944;11.010;2023-09-19T15:36:02;2.63;;;0.80;;
39654;SDS011;25336;59.944;11.010;2023-09-19T15:41:24;1.02;;;0.70;;
39654;SDS011;25336;59.944;11.010;2023-09-19T15:43:51;1.45;;;1.15;;
39654;SDS011;25336;59.944;11.010;2023-09-19T15:46:17;3.13;;;0.90;;
39654;SDS011;25336;59.944;11.010;2023-09-19T15:48:44;3.15;;;0.80;;
39654;SDS011;25336;59.944;11.010;2023-09-19T15:51:10;1.67;;;0.95;;
39654;SDS011;25336;59.944;11.010;2023-09-19T15:53:55;7.38;;;0.60;;